createdAt,value
2017-11-04T00:00:28.565Z,99.90
2017-11-04T00:02:58.939Z,99.90
2017-11-04T00:05:30.291Z,99.90
2017-11-04T00:08:01.992Z,99.90
2017-11-04T00:10:33.140Z,99.90
2017-11-04T00:13:03.401Z,99.90
2017-11-04T00:15:34.610Z,99.90
2017-11-04T00:18:07.229Z,99.90
2017-11-04T00:20:37.720Z,99.90
2017-11-04T00:23:11.204Z,99.90
2017-11-04T00:25:42.145Z,99.90
2017-11-04T00:28:14.955Z,99.90
2017-11-04T00:30:46.343Z,99.90
2017-11-04T00:33:17.063Z,99.90
2017-11-04T00:35:47.820Z,99.90
2017-11-04T00:38:19.821Z,99.90
2017-11-04T00:40:50.081Z,99.90
2017-11-04T00:43:23.119Z,99.90
2017-11-04T00:45:54.546Z,99.90
2017-11-04T00:48:25.764Z,99.90
2017-11-04T00:50:56.665Z,99.90
2017-11-04T00:53:29.030Z,99.90
2017-11-04T00:56:00.766Z,99.90
2017-11-04T00:58:33.814Z,99.90
2017-11-04T01:01:04.214Z,99.90
2017-11-04T01:03:36.199Z,99.90
2017-11-04T01:06:08.367Z,99.90
2017-11-04T01:08:39.803Z,99.90
2017-11-04T01:11:11.316Z,99.90
2017-11-04T01:13:46.196Z,99.90
2017-11-04T01:16:17.026Z,99.90
2017-11-04T01:18:47.904Z,99.90
2017-11-04T01:21:18.005Z,99.90
2017-11-04T01:23:48.730Z,99.90
2017-11-04T01:26:19.083Z,99.90
2017-11-04T01:28:50.965Z,99.90
2017-11-04T01:31:21.573Z,99.90
2017-11-04T01:33:52.639Z,99.90
2017-11-04T01:36:23.656Z,99.90
2017-11-04T01:38:54.736Z,99.90
2017-11-04T01:41:25.545Z,99.90
2017-11-04T01:43:56.514Z,99.90
2017-11-04T01:46:27.644Z,99.90
2017-11-04T01:48:59.332Z,99.90
2017-11-04T01:51:30.087Z,99.90
2017-11-04T01:54:00.384Z,99.90
2017-11-04T01:56:31.131Z,99.90
2017-11-04T01:59:01.489Z,99.90
2017-11-04T02:01:31.878Z,99.90
2017-11-04T02:04:02.892Z,99.90
2017-11-04T02:06:34.989Z,99.90
2017-11-04T02:09:06.694Z,99.90
2017-11-04T02:11:37.262Z,99.90
2017-11-04T02:14:07.826Z,99.90
2017-11-04T02:16:42.086Z,99.90
2017-11-04T02:19:13.380Z,99.90
2017-11-04T02:21:44.486Z,99.90
2017-11-04T02:24:15.309Z,99.90
2017-11-04T02:26:46.836Z,99.90
2017-11-04T02:29:18.461Z,99.90
2017-11-04T02:31:49.255Z,99.90
2017-11-04T02:34:20.058Z,99.90
2017-11-04T02:36:52.730Z,99.90
2017-11-04T02:39:27.282Z,99.90
2017-11-04T02:41:58.665Z,99.90
2017-11-04T02:44:29.046Z,99.90
2017-11-04T02:47:02.670Z,99.90
2017-11-04T02:49:33.694Z,99.90
2017-11-04T02:52:05.198Z,99.90
2017-11-04T02:54:36.612Z,99.90
2017-11-04T02:57:07.672Z,99.90
2017-11-04T02:59:39.188Z,99.90
2017-11-04T03:02:11.528Z,99.90
2017-11-04T03:04:42.174Z,99.90
2017-11-04T03:07:12.703Z,99.90
2017-11-04T03:09:42.956Z,99.90
2017-11-04T03:12:14.184Z,99.90
2017-11-04T03:14:44.998Z,99.90
2017-11-04T03:17:15.698Z,99.90
2017-11-04T03:19:46.310Z,99.90
2017-11-04T03:22:17.148Z,99.90
2017-11-04T03:24:49.300Z,99.90
2017-11-04T03:27:19.932Z,99.90
2017-11-04T03:29:50.467Z,99.90
2017-11-04T03:32:21.623Z,99.90
2017-11-04T03:34:52.955Z,99.90
2017-11-04T03:37:24.729Z,99.90
2017-11-04T03:39:56.735Z,99.90
2017-11-04T03:42:28.638Z,99.90
2017-11-04T03:44:59.179Z,99.90
2017-11-04T03:47:30.778Z,99.90
2017-11-04T03:50:01.725Z,99.90
2017-11-04T03:52:35.065Z,99.90
2017-11-04T03:55:08.249Z,99.90
2017-11-04T03:57:39.287Z,99.90
2017-11-04T04:00:10.644Z,99.90
2017-11-04T04:02:41.365Z,99.90
2017-11-04T04:05:12.838Z,99.90
2017-11-04T04:07:43.509Z,99.90
2017-11-04T04:10:13.738Z,99.90
2017-11-04T04:12:44.405Z,99.90
2017-11-04T04:15:15.038Z,99.90
2017-11-04T04:17:45.872Z,99.90
2017-11-04T04:20:16.812Z,99.90
2017-11-04T04:22:47.709Z,99.90
2017-11-04T04:25:18.467Z,99.90
2017-11-04T04:27:49.801Z,99.90
2017-11-04T04:30:20.877Z,99.90
2017-11-04T04:32:52.863Z,99.90
2017-11-04T04:35:23.769Z,99.90
2017-11-04T04:37:55.360Z,99.90
2017-11-04T04:40:26.251Z,99.90
2017-11-04T04:42:58.658Z,99.90
2017-11-04T04:45:29.961Z,99.90
2017-11-04T04:48:00.901Z,99.90
2017-11-04T04:50:31.959Z,99.90
2017-11-04T04:53:02.873Z,99.90
2017-11-04T04:55:33.321Z,99.90
2017-11-04T04:58:04.848Z,99.90
2017-11-04T05:00:35.277Z,99.90
2017-11-04T05:03:08.790Z,99.90
2017-11-04T05:05:40.120Z,99.90
2017-11-04T05:08:11.487Z,99.90
2017-11-04T05:10:42.259Z,99.90
2017-11-04T05:13:15.200Z,99.90
2017-11-04T05:15:47.244Z,99.90
2017-11-04T05:18:18.074Z,99.90
2017-11-04T05:20:48.859Z,99.90
2017-11-04T05:23:19.989Z,99.90
2017-11-04T05:25:51.756Z,99.90
2017-11-04T05:28:24.285Z,99.90
2017-11-04T05:30:54.742Z,99.90
2017-11-04T05:33:26.895Z,99.90
2017-11-04T05:35:58.174Z,99.90
2017-11-04T05:38:29.652Z,99.90
2017-11-04T05:40:59.929Z,99.90
2017-11-04T05:43:31.041Z,99.90
2017-11-04T05:46:02.898Z,99.90
2017-11-04T05:48:33.956Z,99.90
2017-11-04T05:51:05.719Z,99.90
2017-11-04T05:53:37.790Z,99.90
2017-11-04T05:56:09.060Z,99.90
2017-11-04T05:58:39.986Z,99.90
2017-11-04T06:01:13.500Z,99.90
2017-11-04T06:03:56.556Z,99.90
2017-11-04T06:06:27.337Z,99.90
2017-11-04T06:09:06.894Z,99.90
2017-11-04T06:11:38.943Z,99.90
2017-11-04T06:14:11.718Z,99.90
2017-11-04T06:16:42.760Z,99.90
2017-11-04T06:19:13.445Z,99.90
2017-11-04T06:21:44.212Z,99.90
2017-11-04T06:24:16.366Z,99.90
2017-11-04T06:26:48.959Z,99.90
2017-11-04T06:29:24.426Z,99.90
2017-11-04T06:31:55.955Z,99.90
2017-11-04T06:34:27.197Z,99.90
2017-11-04T06:36:58.359Z,99.90
2017-11-04T06:39:29.886Z,99.90
2017-11-04T06:42:00.660Z,99.90
2017-11-04T06:44:33.032Z,99.90
2017-11-04T06:47:05.274Z,99.90
2017-11-04T06:49:36.326Z,99.90
2017-11-04T06:52:07.048Z,99.90
2017-11-04T06:54:38.761Z,99.90
2017-11-04T06:57:11.505Z,99.90
2017-11-04T06:59:44.173Z,99.90
2017-11-04T07:02:16.924Z,99.90
2017-11-04T07:04:47.446Z,99.90
2017-11-04T07:07:19.589Z,99.90
2017-11-04T07:09:50.346Z,99.90
2017-11-04T07:12:22.685Z,99.90
2017-11-04T07:14:53.136Z,99.90
2017-11-04T07:17:23.428Z,99.90
2017-11-04T07:20:00.982Z,99.90
2017-11-04T07:22:34.823Z,99.90
2017-11-04T07:25:09.088Z,99.90
2017-11-04T07:27:46.387Z,99.90
2017-11-04T07:30:17.153Z,99.90
2017-11-04T07:32:48.669Z,99.90
2017-11-04T07:35:19.803Z,99.90
2017-11-04T07:37:51.385Z,99.90
2017-11-04T07:40:24.767Z,99.90
2017-11-04T07:43:00.598Z,99.90
2017-11-04T07:45:31.003Z,99.90
2017-11-04T07:48:01.957Z,99.90
2017-11-04T07:50:32.386Z,99.90
2017-11-04T07:53:03.864Z,99.90
2017-11-04T07:55:36.594Z,99.90
2017-11-04T07:58:07.068Z,99.90
2017-11-04T08:00:38.055Z,99.90
2017-11-04T08:03:08.788Z,99.90
2017-11-04T08:05:39.988Z,99.90
2017-11-04T08:08:10.484Z,99.90
2017-11-04T08:10:40.839Z,99.90
2017-11-04T08:13:10.930Z,99.90
2017-11-04T08:15:41.290Z,99.90
2017-11-04T08:18:14.987Z,99.90
2017-11-04T08:20:45.058Z,99.90
2017-11-04T08:23:15.330Z,99.90
2017-11-04T08:25:46.258Z,99.90
2017-11-04T08:28:19.308Z,99.90
2017-11-04T08:30:50.077Z,99.90
2017-11-04T08:33:20.437Z,99.90
2017-11-04T08:35:55.572Z,99.90
2017-11-04T08:38:25.934Z,99.90
2017-11-04T08:40:57.747Z,99.90
2017-11-04T08:43:29.014Z,99.90
2017-11-04T08:46:01.458Z,99.90
2017-11-04T08:48:32.247Z,99.90
2017-11-04T08:51:05.883Z,99.90
2017-11-04T08:53:36.790Z,99.90
2017-11-04T08:56:09.725Z,99.90
2017-11-04T08:58:41.874Z,99.90
2017-11-04T09:01:12.486Z,99.90
2017-11-04T09:03:43.459Z,99.90
2017-11-04T09:06:15.547Z,99.90
2017-11-04T09:08:45.899Z,99.90
2017-11-04T09:11:16.501Z,99.90
2017-11-04T09:13:47.465Z,99.90
2017-11-04T09:16:18.711Z,99.90
2017-11-04T09:18:48.983Z,99.90
2017-11-04T09:21:21.417Z,99.90
2017-11-04T09:24:05.209Z,99.90
2017-11-04T09:26:36.503Z,99.90
2017-11-04T09:29:08.238Z,99.90
2017-11-04T09:31:39.602Z,99.90
2017-11-04T09:34:10.593Z,99.90
2017-11-04T09:36:41.265Z,99.90
2017-11-04T09:39:13.270Z,99.90
2017-11-04T09:41:43.908Z,99.90
2017-11-04T09:44:15.569Z,99.90
2017-11-04T09:46:46.085Z,99.90
2017-11-04T09:49:16.822Z,99.90
2017-11-04T09:51:47.588Z,99.90
2017-11-04T09:54:17.739Z,99.90
2017-11-04T09:56:48.026Z,98.10
2017-11-04T09:59:18.210Z,99.90
2017-11-04T10:01:49.284Z,94.70
2017-11-04T10:04:19.546Z,94.60
2017-11-04T10:06:50.102Z,96.00
2017-11-04T10:09:20.766Z,95.50
2017-11-04T10:11:51.052Z,97.40
2017-11-04T10:14:21.697Z,96.90
2017-11-04T10:16:52.430Z,99.00
2017-11-04T10:19:23.265Z,99.50
2017-11-04T10:21:54.203Z,98.60
2017-11-04T10:24:24.799Z,95.40
2017-11-04T10:26:54.940Z,97.40
2017-11-04T10:29:25.775Z,95.70
2017-11-04T10:31:56.161Z,93.00
2017-11-04T10:34:26.816Z,95.30
2017-11-04T10:36:58.444Z,93.90
2017-11-04T10:39:29.277Z,94.00
2017-11-04T10:41:59.675Z,93.00
2017-11-04T10:44:30.308Z,94.40
2017-11-04T10:47:01.877Z,93.80
2017-11-04T10:49:32.118Z,95.30
2017-11-04T10:52:05.169Z,93.70
2017-11-04T10:54:35.399Z,95.20
2017-11-04T10:57:05.563Z,97.60
2017-11-04T10:59:37.128Z,92.30
2017-11-04T11:02:07.443Z,93.60
2017-11-04T11:04:37.640Z,92.40
2017-11-04T11:07:09.488Z,91.70
2017-11-04T11:09:39.764Z,91.60
2017-11-04T11:12:10.831Z,93.90
2017-11-04T11:14:41.516Z,93.90
2017-11-04T11:17:16.176Z,95.60
2017-11-04T11:19:48.106Z,94.70
2017-11-04T11:22:18.802Z,94.70
2017-11-04T11:24:50.057Z,95.30
2017-11-04T11:27:25.323Z,95.40
2017-11-04T11:29:57.163Z,95.90
2017-11-04T11:32:27.756Z,95.90
2017-11-04T11:34:57.755Z,94.70
2017-11-04T11:37:28.583Z,95.50
2017-11-04T11:40:01.121Z,92.20
2017-11-04T11:42:31.211Z,92.20
2017-11-04T11:45:01.677Z,93.50
2017-11-04T11:47:32.063Z,93.40
2017-11-04T11:50:02.173Z,93.50
2017-11-04T11:52:32.794Z,93.90
2017-11-04T11:55:03.265Z,93.70
2017-11-04T11:57:33.728Z,96.00
2017-11-04T12:00:04.661Z,94.70
2017-11-04T12:02:35.279Z,94.60
2017-11-04T12:05:05.358Z,95.70
2017-11-04T12:07:35.659Z,95.50
2017-11-04T12:10:05.827Z,96.00
2017-11-04T12:12:36.275Z,96.40
2017-11-04T12:15:07.166Z,96.70
2017-11-04T12:17:37.345Z,96.70
2017-11-04T12:20:09.068Z,96.30
2017-11-04T12:22:39.913Z,96.30
2017-11-04T12:25:10.086Z,96.00
2017-11-04T12:27:40.196Z,96.00
2017-11-04T12:30:11.332Z,95.00
2017-11-04T12:32:42.296Z,95.80
2017-11-04T12:35:12.431Z,95.80
2017-11-04T12:37:43.247Z,96.30
2017-11-04T12:40:14.951Z,96.90
2017-11-04T12:42:46.032Z,96.80
2017-11-04T12:45:16.870Z,96.80
2017-11-04T12:47:47.047Z,96.40
2017-11-04T12:50:18.265Z,96.10
2017-11-04T12:55:17.147Z,94.60
2017-11-04T12:57:47.835Z,94.60
2017-11-04T13:00:18.882Z,95.30
2017-11-04T13:02:53.502Z,95.80
2017-11-04T13:05:23.812Z,95.10
2017-11-04T13:07:54.346Z,95.00
2017-11-04T13:10:24.781Z,95.70
2017-11-04T13:12:56.152Z,96.20
2017-11-04T13:15:26.543Z,96.90
2017-11-04T13:17:58.460Z,97.60
2017-11-04T13:20:28.886Z,97.10
2017-11-04T13:22:59.727Z,97.20
2017-11-04T13:25:30.308Z,97.00
2017-11-04T13:28:02.221Z,95.90
2017-11-04T13:30:32.730Z,95.90
2017-11-04T13:33:03.239Z,95.40
2017-11-04T13:35:34.411Z,95.50
2017-11-04T13:38:05.260Z,95.40
2017-11-04T13:40:36.255Z,95.30
2017-11-04T13:43:07.163Z,95.30
2017-11-04T13:45:42.086Z,95.10
2017-11-04T13:48:13.404Z,95.10
2017-11-04T13:50:44.189Z,96.00
2017-11-04T13:53:18.351Z,96.10
2017-11-04T13:55:49.630Z,96.80
2017-11-04T13:58:23.303Z,96.80
2017-11-04T14:00:53.971Z,96.90
2017-11-04T14:03:24.111Z,97.30
2017-11-04T14:05:54.480Z,97.60
2017-11-04T14:08:30.522Z,97.90
2017-11-04T14:11:01.017Z,98.20
2017-11-04T14:13:31.276Z,98.20
2017-11-04T14:16:03.174Z,98.30
2017-11-04T14:18:42.727Z,98.40
2017-11-04T14:21:12.924Z,98.20
2017-11-04T14:23:43.967Z,97.70
2017-11-04T14:26:14.472Z,98.40
2017-11-04T14:28:44.814Z,97.40
2017-11-04T14:31:16.778Z,97.40
2017-11-04T14:33:48.781Z,97.30
2017-11-04T14:36:22.433Z,97.40
2017-11-04T14:38:55.750Z,97.50
2017-11-04T14:41:28.091Z,97.70
2017-11-04T14:44:08.238Z,97.70
2017-11-04T14:46:45.458Z,97.80
2017-11-04T14:49:20.242Z,97.90
2017-11-04T14:51:53.753Z,98.10
2017-11-04T14:54:29.341Z,98.20
2017-11-04T14:57:02.093Z,98.30
2017-11-04T14:59:35.574Z,98.30
2017-11-04T15:02:07.858Z,98.10
2017-11-04T15:04:42.550Z,98.10
2017-11-04T15:07:15.198Z,98.30
2017-11-04T15:09:49.593Z,98.00
2017-11-04T15:12:23.113Z,98.20
2017-11-04T15:14:56.446Z,98.20
2017-11-04T15:17:30.597Z,98.40
2017-11-04T15:20:08.394Z,98.80
2017-11-04T15:22:41.873Z,98.80
2017-11-04T15:25:12.635Z,99.10
2017-11-04T15:27:45.997Z,98.90
2017-11-04T15:30:17.572Z,99.30
2017-11-04T15:32:50.394Z,99.10
2017-11-04T15:35:24.087Z,99.10
2017-11-04T15:37:56.652Z,99.20
2017-11-04T15:40:30.680Z,99.20
2017-11-04T15:43:04.245Z,99.40
2017-11-04T15:45:39.767Z,99.70
2017-11-04T15:48:15.188Z,99.70
2017-11-04T15:50:50.844Z,99.90
2017-11-04T15:53:23.810Z,99.90
2017-11-04T15:55:57.228Z,99.90
2017-11-04T15:58:31.873Z,99.90
2017-11-04T16:01:06.504Z,99.90
2017-11-04T16:03:39.857Z,99.90
2017-11-04T16:06:17.274Z,99.90
2017-11-04T16:08:52.491Z,99.90
2017-11-04T16:11:29.970Z,99.90
2017-11-04T16:14:04.549Z,99.90
2017-11-04T16:16:38.998Z,99.90
2017-11-04T16:19:13.076Z,99.90
2017-11-04T16:21:46.327Z,99.90
2017-11-04T16:24:21.910Z,99.90
2017-11-04T16:26:57.961Z,99.90
2017-11-04T16:29:32.447Z,99.90
2017-11-04T16:32:06.616Z,99.90
2017-11-04T16:34:38.821Z,99.90
2017-11-04T16:37:11.653Z,99.90
2017-11-04T16:39:44.120Z,99.90
2017-11-04T16:42:26.353Z,99.90
2017-11-04T16:45:04.876Z,99.90
2017-11-04T16:47:42.667Z,99.90
2017-11-04T16:50:20.464Z,99.90
2017-11-04T16:52:54.108Z,99.90
2017-11-04T16:55:35.497Z,99.90
2017-11-04T16:58:21.170Z,99.90
2017-11-04T17:07:45.980Z,99.90
2017-11-04T17:10:22.578Z,99.90
2017-11-04T17:12:57.443Z,99.90
2017-11-04T17:15:31.505Z,99.90
2017-11-04T17:18:02.963Z,99.90
2017-11-04T17:20:37.725Z,99.90
2017-11-04T17:23:12.514Z,99.90
2017-11-04T17:25:46.854Z,99.90
2017-11-04T17:28:20.352Z,99.80
2017-11-04T17:30:53.731Z,99.60
2017-11-04T17:33:27.681Z,99.70
2017-11-04T17:36:02.161Z,99.50
2017-11-04T17:38:36.120Z,99.50
2017-11-04T17:41:07.927Z,99.40
2017-11-04T17:43:42.807Z,99.20
2017-11-04T17:46:15.865Z,99.00
2017-11-04T17:48:49.839Z,99.00
2017-11-04T17:51:24.529Z,98.90
2017-11-04T17:54:00.956Z,98.70
2017-11-04T17:56:38.752Z,98.70
2017-11-04T17:59:13.019Z,98.90
2017-11-04T18:01:48.363Z,98.80
2017-11-04T18:04:21.449Z,98.90
2017-11-04T18:07:00.247Z,98.90
2017-11-04T18:09:37.205Z,98.90
2017-11-04T18:12:12.699Z,98.90
2017-11-04T18:14:48.759Z,99.10
2017-11-04T18:17:22.611Z,99.10
2017-11-04T18:19:58.590Z,99.40
2017-11-04T18:22:35.629Z,99.40
2017-11-04T18:25:11.712Z,99.40
2017-11-04T18:27:46.967Z,99.40
2017-11-04T18:30:23.603Z,99.30
2017-11-04T18:32:59.657Z,99.30
2017-11-04T18:35:36.993Z,99.30
2017-11-04T18:38:16.441Z,99.40
2017-11-04T18:40:52.208Z,99.50
2017-11-04T18:43:29.726Z,99.60
2017-11-04T18:46:09.876Z,99.90
2017-11-04T18:48:46.628Z,99.90
2017-11-04T18:51:24.695Z,99.90
2017-11-04T18:54:02.913Z,99.90
2017-11-04T18:56:36.130Z,99.90
2017-11-04T18:59:13.576Z,99.90
2017-11-04T19:01:51.979Z,99.90
2017-11-04T19:04:27.994Z,99.90
2017-11-04T19:07:05.941Z,99.90
2017-11-04T19:09:39.949Z,99.90
2017-11-04T19:12:16.561Z,99.90
2017-11-04T19:14:53.165Z,99.90
2017-11-04T19:17:30.420Z,99.90
2017-11-04T19:20:09.687Z,99.90
2017-11-04T19:22:47.953Z,99.90
2017-11-04T19:25:24.490Z,99.90
2017-11-04T19:28:07.604Z,99.90
2017-11-04T19:30:44.853Z,99.90
2017-11-04T19:33:22.134Z,99.90
2017-11-04T19:35:59.729Z,99.90
2017-11-04T19:38:42.360Z,99.90
2017-11-04T19:41:19.746Z,99.90
2017-11-04T19:43:57.385Z,99.90
2017-11-04T19:46:35.518Z,99.90
2017-11-04T19:49:16.576Z,99.90
2017-11-04T19:51:52.979Z,99.90
2017-11-04T19:54:33.256Z,99.90
2017-11-04T19:57:12.180Z,99.90
2017-11-04T19:59:53.430Z,99.90
2017-11-04T20:02:34.712Z,99.90
2017-11-04T20:05:11.922Z,99.90
2017-11-04T20:07:57.979Z,99.90
2017-11-04T20:10:40.022Z,99.90
2017-11-04T20:13:17.226Z,99.90
2017-11-04T20:15:58.994Z,99.90
2017-11-04T20:18:39.849Z,99.90
2017-11-04T20:21:17.708Z,99.90
2017-11-04T20:23:57.965Z,99.90
2017-11-04T20:26:42.039Z,99.90
2017-11-04T20:29:18.271Z,99.90
2017-11-04T20:32:02.025Z,99.90
2017-11-04T20:34:40.743Z,99.90
2017-11-04T20:37:22.826Z,99.90
2017-11-04T20:40:02.191Z,99.90
2017-11-04T20:42:42.047Z,99.90
2017-11-04T20:45:19.867Z,99.90
2017-11-04T20:47:58.631Z,99.90
2017-11-04T20:50:34.682Z,99.90
2017-11-04T20:53:23.711Z,99.90
2017-11-04T20:55:59.445Z,99.90
2017-11-04T20:58:36.287Z,99.90
2017-11-04T21:01:16.948Z,99.90
2017-11-04T21:03:57.178Z,99.90
2017-11-04T21:06:29.970Z,99.90
2017-11-04T21:09:03.722Z,99.90
2017-11-04T21:11:36.554Z,99.90
2017-11-04T21:14:09.574Z,99.90
2017-11-04T21:16:42.400Z,99.90
2017-11-04T21:19:15.273Z,99.90
2017-11-04T21:21:48.664Z,99.90
2017-11-04T21:24:24.517Z,99.90
2017-11-04T21:27:01.161Z,99.90
2017-11-04T21:29:34.985Z,99.90
2017-11-04T21:32:09.472Z,99.90
2017-11-04T21:34:43.278Z,99.90
2017-11-04T21:37:19.931Z,99.90
2017-11-04T21:39:54.728Z,99.90
2017-11-04T21:42:33.999Z,99.90
2017-11-04T21:45:09.018Z,99.90
2017-11-04T21:47:42.897Z,99.90
2017-11-04T21:50:17.253Z,99.90
2017-11-04T21:52:47.942Z,99.90
2017-11-04T21:55:23.694Z,99.90
2017-11-04T21:57:56.717Z,99.90
2017-11-04T22:00:30.783Z,99.90
2017-11-04T22:03:05.032Z,99.90
2017-11-04T22:05:39.293Z,99.90
2017-11-04T22:08:12.874Z,99.90
2017-11-04T22:10:45.317Z,99.90
2017-11-04T22:13:18.559Z,99.90
2017-11-04T22:15:53.137Z,99.90
2017-11-04T22:18:24.578Z,99.90
2017-11-04T22:20:56.522Z,99.90
2017-11-04T22:23:28.675Z,99.90
2017-11-04T22:26:00.495Z,99.90
2017-11-04T22:28:33.048Z,99.90
2017-11-04T22:31:04.162Z,99.90
2017-11-04T22:33:37.333Z,99.90
2017-11-04T22:36:08.326Z,99.90
2017-11-04T22:38:39.515Z,99.90
2017-11-04T22:41:11.007Z,99.90
2017-11-04T22:43:41.601Z,99.90
2017-11-04T22:46:11.841Z,99.90
2017-11-04T22:48:43.564Z,99.90
2017-11-04T22:51:15.899Z,99.90
2017-11-04T22:53:46.417Z,99.90
2017-11-04T22:56:17.114Z,99.90
2017-11-04T22:58:47.404Z,99.90
2017-11-04T23:01:17.818Z,99.90
2017-11-04T23:03:48.360Z,99.90
2017-11-04T23:06:19.767Z,99.90
2017-11-04T23:08:50.986Z,99.90
2017-11-04T23:11:21.087Z,99.90
2017-11-04T23:13:51.295Z,99.90
2017-11-04T23:16:21.549Z,99.90
2017-11-04T23:18:52.424Z,99.90
2017-11-04T23:21:23.548Z,99.90
2017-11-04T23:23:54.818Z,99.90
2017-11-04T23:26:25.038Z,99.90
2017-11-04T23:28:55.927Z,99.90
2017-11-04T23:31:26.326Z,99.90
2017-11-04T23:33:57.308Z,99.90
2017-11-04T23:36:30.553Z,99.90
2017-11-04T23:39:01.137Z,99.90
2017-11-04T23:41:34.158Z,99.90
2017-11-04T23:44:04.723Z,99.90
2017-11-04T23:46:35.309Z,99.90
2017-11-04T23:49:06.083Z,99.90
2017-11-04T23:51:37.391Z,99.90
2017-11-04T23:54:07.505Z,99.90
2017-11-04T23:56:38.081Z,99.90
2017-11-04T23:59:08.853Z,99.90
